sensor_id;sensor_type;location;lat;lon;timestamp;P1;durP1;ratioP1;P2;durP2;ratioP2
33104;SDS011;19476;51.448;6.674;2023-05-02T00:00:35;12.93;;;8.73;;
33104;SDS011;19476;51.448;6.674;2023-05-02T00:03:01;13.00;;;9.68;;
33104;SDS011;19476;51.448;6.674;2023-05-02T00:05:29;14.65;;;9.90;;
33104;SDS011;19476;51.448;6.674;2023-05-02T00:07:55;14.65;;;10.02;;
33104;SDS011;19476;51.448;6.674;2023-05-02T00:10:20;16.98;;;11.13;;
33104;SDS011;19476;51.448;6.674;2023-05-02T00:12:46;16.20;;;10.48;;
33104;SDS011;19476;51.448;6.674;2023-05-02T00:15:12;16.33;;;10.65;;
33104;SDS011;19476;51.448;6.674;2023-05-02T00:17:39;16.30;;;11.10;;
33104;SDS011;19476;51.448;6.674;2023-05-02T00:20:08;17.45;;;11.32;;
33104;SDS011;19476;51.448;6.674;2023-05-02T00:22:35;16.85;;;11.70;;
33104;SDS011;19476;51.448;6.674;2023-05-02T00:25:02;15.85;;;11.32;;
33104;SDS011;19476;51.448;6.674;2023-05-02T00:27:31;18.15;;;11.25;;
33104;SDS011;19476;51.448;6.674;2023-05-02T00:29:57;16.90;;;11.48;;
33104;SDS011;19476;51.448;6.674;2023-05-02T00:32:24;17.88;;;11.77;;
33104;SDS011;19476;51.448;6.674;2023-05-02T00:34:51;20.77;;;14.02;;
33104;SDS011;19476;51.448;6.674;2023-05-02T00:37:17;20.00;;;13.10;;
33104;SDS011;19476;51.448;6.674;2023-05-02T00:39:43;18.23;;;11.93;;
33104;SDS011;19476;51.448;6.674;2023-05-02T00:42:09;17.55;;;10.95;;
33104;SDS011;19476;51.448;6.674;2023-05-02T00:44:35;19.75;;;13.18;;
33104;SDS011;19476;51.448;6.674;2023-05-02T00:47:00;16.83;;;11.07;;
33104;SDS011;19476;51.448;6.674;2023-05-02T00:49:26;17.75;;;12.27;;
33104;SDS011;19476;51.448;6.674;2023-05-02T00:51:53;17.40;;;12.20;;
33104;SDS011;19476;51.448;6.674;2023-05-02T00:54:19;18.92;;;12.63;;
33104;SDS011;19476;51.448;6.674;2023-05-02T00:56:45;19.30;;;12.63;;
33104;SDS011;19476;51.448;6.674;2023-05-02T00:59:11;20.80;;;14.10;;
33104;SDS011;19476;51.448;6.674;2023-05-02T01:04:59;20.15;;;13.07;;
33104;SDS011;19476;51.448;6.674;2023-05-02T01:10:37;21.58;;;13.50;;
33104;SDS011;19476;51.448;6.674;2023-05-02T01:13:11;21.25;;;13.05;;
33104;SDS011;19476;51.448;6.674;2023-05-02T01:15:44;19.83;;;12.68;;
33104;SDS011;19476;51.448;6.674;2023-05-02T01:18:12;20.48;;;13.23;;
33104;SDS011;19476;51.448;6.674;2023-05-02T01:20:42;18.55;;;12.15;;
33104;SDS011;19476;51.448;6.674;2023-05-02T01:23:14;19.33;;;12.27;;
33104;SDS011;19476;51.448;6.674;2023-05-02T01:31:09;18.98;;;10.77;;
33104;SDS011;19476;51.448;6.674;2023-05-02T01:33:36;19.77;;;12.18;;
33104;SDS011;19476;51.448;6.674;2023-05-02T01:36:03;19.65;;;12.60;;
33104;SDS011;19476;51.448;6.674;2023-05-02T01:38:31;19.88;;;11.40;;
33104;SDS011;19476;51.448;6.674;2023-05-02T01:40:59;18.35;;;11.50;;
33104;SDS011;19476;51.448;6.674;2023-05-02T01:43:29;18.67;;;11.35;;
33104;SDS011;19476;51.448;6.674;2023-05-02T01:45:59;17.85;;;11.65;;
33104;SDS011;19476;51.448;6.674;2023-05-02T01:48:28;20.52;;;12.30;;
33104;SDS011;19476;51.448;6.674;2023-05-02T01:50:55;19.48;;;11.07;;
33104;SDS011;19476;51.448;6.674;2023-05-02T01:53:24;18.02;;;11.10;;
33104;SDS011;19476;51.448;6.674;2023-05-02T01:58:19;16.88;;;9.75;;
33104;SDS011;19476;51.448;6.674;2023-05-02T02:00:46;18.83;;;10.70;;
33104;SDS011;19476;51.448;6.674;2023-05-02T02:03:12;18.60;;;12.32;;
33104;SDS011;19476;51.448;6.674;2023-05-02T02:05:40;18.90;;;12.10;;
33104;SDS011;19476;51.448;6.674;2023-05-02T02:08:07;20.10;;;12.20;;
33104;SDS011;19476;51.448;6.674;2023-05-02T02:10:39;19.88;;;11.38;;
33104;SDS011;19476;51.448;6.674;2023-05-02T02:13:17;18.40;;;11.30;;
33104;SDS011;19476;51.448;6.674;2023-05-02T02:15:48;17.63;;;10.27;;
33104;SDS011;19476;51.448;6.674;2023-05-02T02:18:18;17.20;;;10.53;;
33104;SDS011;19476;51.448;6.674;2023-05-02T02:20:47;19.23;;;10.38;;
33104;SDS011;19476;51.448;6.674;2023-05-02T02:23:15;16.77;;;10.40;;
33104;SDS011;19476;51.448;6.674;2023-05-02T02:25:46;18.42;;;10.15;;
33104;SDS011;19476;51.448;6.674;2023-05-02T02:28:15;14.93;;;9.85;;
33104;SDS011;19476;51.448;6.674;2023-05-02T02:30:41;17.63;;;10.52;;
33104;SDS011;19476;51.448;6.674;2023-05-02T02:33:06;16.55;;;10.40;;
33104;SDS011;19476;51.448;6.674;2023-05-02T02:35:34;15.30;;;8.82;;
33104;SDS011;19476;51.448;6.674;2023-05-02T02:40:38;17.42;;;9.35;;
33104;SDS011;19476;51.448;6.674;2023-05-02T02:43:18;15.43;;;9.00;;
33104;SDS011;19476;51.448;6.674;2023-05-02T02:45:55;15.30;;;8.85;;
33104;SDS011;19476;51.448;6.674;2023-05-02T02:48:49;13.43;;;8.43;;
33104;SDS011;19476;51.448;6.674;2023-05-02T02:51:37;13.95;;;8.57;;
33104;SDS011;19476;51.448;6.674;2023-05-02T02:54:34;15.75;;;9.02;;
33104;SDS011;19476;51.448;6.674;2023-05-02T02:57:22;13.27;;;8.07;;
33104;SDS011;19476;51.448;6.674;2023-05-02T03:02:35;13.52;;;7.20;;
33104;SDS011;19476;51.448;6.674;2023-05-02T03:05:03;12.70;;;7.22;;
33104;SDS011;19476;51.448;6.674;2023-05-02T03:07:31;12.80;;;7.03;;
33104;SDS011;19476;51.448;6.674;2023-05-02T03:09:57;11.00;;;6.18;;
33104;SDS011;19476;51.448;6.674;2023-05-02T03:12:23;10.32;;;5.70;;
33104;SDS011;19476;51.448;6.674;2023-05-02T03:14:49;10.35;;;5.10;;
33104;SDS011;19476;51.448;6.674;2023-05-02T03:17:15;9.77;;;5.15;;
33104;SDS011;19476;51.448;6.674;2023-05-02T03:19:41;9.02;;;4.88;;
33104;SDS011;19476;51.448;6.674;2023-05-02T03:22:06;9.02;;;5.07;;
33104;SDS011;19476;51.448;6.674;2023-05-02T03:24:32;9.10;;;4.68;;
33104;SDS011;19476;51.448;6.674;2023-05-02T03:26:58;7.32;;;3.92;;
33104;SDS011;19476;51.448;6.674;2023-05-02T03:29:24;8.23;;;5.13;;
33104;SDS011;19476;51.448;6.674;2023-05-02T03:31:51;7.32;;;4.00;;
33104;SDS011;19476;51.448;6.674;2023-05-02T03:34:16;7.90;;;4.30;;
33104;SDS011;19476;51.448;6.674;2023-05-02T03:36:43;7.70;;;3.85;;
33104;SDS011;19476;51.448;6.674;2023-05-02T03:39:09;7.60;;;3.90;;
33104;SDS011;19476;51.448;6.674;2023-05-02T03:41:36;6.63;;;3.45;;
33104;SDS011;19476;51.448;6.674;2023-05-02T03:44:02;8.32;;;4.22;;
33104;SDS011;19476;51.448;6.674;2023-05-02T03:46:28;7.28;;;3.63;;
33104;SDS011;19476;51.448;6.674;2023-05-02T03:48:53;8.25;;;4.20;;
33104;SDS011;19476;51.448;6.674;2023-05-02T03:51:22;7.75;;;3.70;;
33104;SDS011;19476;51.448;6.674;2023-05-02T03:53:48;7.75;;;4.07;;
33104;SDS011;19476;51.448;6.674;2023-05-02T03:56:17;7.88;;;4.03;;
33104;SDS011;19476;51.448;6.674;2023-05-02T03:58:46;6.00;;;3.22;;
33104;SDS011;19476;51.448;6.674;2023-05-02T04:01:13;8.38;;;3.75;;
33104;SDS011;19476;51.448;6.674;2023-05-02T04:03:40;7.68;;;4.00;;
33104;SDS011;19476;51.448;6.674;2023-05-02T04:06:06;7.20;;;3.45;;
33104;SDS011;19476;51.448;6.674;2023-05-02T04:08:33;7.05;;;4.00;;
33104;SDS011;19476;51.448;6.674;2023-05-02T04:10:58;10.50;;;4.43;;
33104;SDS011;19476;51.448;6.674;2023-05-02T04:13:24;10.02;;;4.35;;
33104;SDS011;19476;51.448;6.674;2023-05-02T04:15:50;7.70;;;3.83;;
33104;SDS011;19476;51.448;6.674;2023-05-02T04:18:16;8.18;;;4.53;;
33104;SDS011;19476;51.448;6.674;2023-05-02T04:20:42;8.13;;;3.88;;
33104;SDS011;19476;51.448;6.674;2023-05-02T04:23:09;9.60;;;5.15;;
33104;SDS011;19476;51.448;6.674;2023-05-02T04:25:35;8.63;;;4.38;;
33104;SDS011;19476;51.448;6.674;2023-05-02T04:28:01;8.50;;;4.70;;
33104;SDS011;19476;51.448;6.674;2023-05-02T04:30:27;8.93;;;5.20;;
33104;SDS011;19476;51.448;6.674;2023-05-02T04:32:53;10.32;;;5.63;;
33104;SDS011;19476;51.448;6.674;2023-05-02T04:35:19;9.55;;;5.13;;
33104;SDS011;19476;51.448;6.674;2023-05-02T04:37:45;10.30;;;5.45;;
33104;SDS011;19476;51.448;6.674;2023-05-02T04:40:11;12.25;;;6.47;;
33104;SDS011;19476;51.448;6.674;2023-05-02T04:42:37;12.23;;;6.20;;
33104;SDS011;19476;51.448;6.674;2023-05-02T04:45:03;12.77;;;6.00;;
33104;SDS011;19476;51.448;6.674;2023-05-02T04:47:29;10.48;;;5.78;;
33104;SDS011;19476;51.448;6.674;2023-05-02T04:49:55;12.32;;;6.97;;
33104;SDS011;19476;51.448;6.674;2023-05-02T04:52:20;12.77;;;6.97;;
33104;SDS011;19476;51.448;6.674;2023-05-02T04:54:46;12.30;;;6.82;;
33104;SDS011;19476;51.448;6.674;2023-05-02T04:57:13;12.50;;;7.15;;
33104;SDS011;19476;51.448;6.674;2023-05-02T04:59:38;13.10;;;6.35;;
33104;SDS011;19476;51.448;6.674;2023-05-02T05:02:04;10.73;;;5.68;;
33104;SDS011;19476;51.448;6.674;2023-05-02T05:04:32;10.07;;;5.35;;
33104;SDS011;19476;51.448;6.674;2023-05-02T05:06:58;9.25;;;4.22;;
33104;SDS011;19476;51.448;6.674;2023-05-02T05:09:24;7.65;;;3.83;;
33104;SDS011;19476;51.448;6.674;2023-05-02T05:11:50;8.25;;;4.20;;
33104;SDS011;19476;51.448;6.674;2023-05-02T05:14:16;6.25;;;3.15;;
33104;SDS011;19476;51.448;6.674;2023-05-02T05:16:41;6.15;;;2.88;;
33104;SDS011;19476;51.448;6.674;2023-05-02T05:19:07;5.78;;;2.60;;
33104;SDS011;19476;51.448;6.674;2023-05-02T05:21:33;3.65;;;1.90;;
33104;SDS011;19476;51.448;6.674;2023-05-02T05:23:59;3.25;;;1.65;;
33104;SDS011;19476;51.448;6.674;2023-05-02T05:26:25;3.42;;;1.73;;
33104;SDS011;19476;51.448;6.674;2023-05-02T05:28:50;4.65;;;1.98;;
33104;SDS011;19476;51.448;6.674;2023-05-02T05:31:16;3.33;;;1.65;;
33104;SDS011;19476;51.448;6.674;2023-05-02T05:33:42;4.10;;;1.90;;
33104;SDS011;19476;51.448;6.674;2023-05-02T05:36:09;3.40;;;1.70;;
33104;SDS011;19476;51.448;6.674;2023-05-02T05:38:36;2.65;;;1.42;;
33104;SDS011;19476;51.448;6.674;2023-05-02T05:41:02;4.30;;;1.90;;
33104;SDS011;19476;51.448;6.674;2023-05-02T05:43:29;3.47;;;1.65;;
33104;SDS011;19476;51.448;6.674;2023-05-02T05:45:55;6.18;;;1.95;;
33104;SDS011;19476;51.448;6.674;2023-05-02T05:48:21;3.13;;;1.50;;
33104;SDS011;19476;51.448;6.674;2023-05-02T05:50:47;4.95;;;1.63;;
33104;SDS011;19476;51.448;6.674;2023-05-02T05:53:13;4.70;;;1.60;;
33104;SDS011;19476;51.448;6.674;2023-05-02T05:55:40;4.93;;;1.55;;
33104;SDS011;19476;51.448;6.674;2023-05-02T05:58:07;2.70;;;1.30;;
33104;SDS011;19476;51.448;6.674;2023-05-02T06:00:35;5.15;;;1.67;;
33104;SDS011;19476;51.448;6.674;2023-05-02T06:03:02;5.35;;;1.42;;
33104;SDS011;19476;51.448;6.674;2023-05-02T06:05:28;4.85;;;1.75;;
33104;SDS011;19476;51.448;6.674;2023-05-02T06:07:55;4.80;;;1.70;;
33104;SDS011;19476;51.448;6.674;2023-05-02T06:10:23;4.65;;;1.45;;
33104;SDS011;19476;51.448;6.674;2023-05-02T06:12:49;4.40;;;1.30;;
33104;SDS011;19476;51.448;6.674;2023-05-02T06:15:16;4.32;;;1.60;;
33104;SDS011;19476;51.448;6.674;2023-05-02T06:17:42;4.72;;;1.17;;
33104;SDS011;19476;51.448;6.674;2023-05-02T06:20:08;2.10;;;1.20;;
33104;SDS011;19476;51.448;6.674;2023-05-02T06:22:34;5.50;;;1.20;;
33104;SDS011;19476;51.448;6.674;2023-05-02T06:25:00;3.40;;;1.70;;
33104;SDS011;19476;51.448;6.674;2023-05-02T06:27:26;5.57;;;1.40;;
33104;SDS011;19476;51.448;6.674;2023-05-02T06:29:52;3.50;;;1.30;;
33104;SDS011;19476;51.448;6.674;2023-05-02T06:32:18;3.90;;;1.63;;
33104;SDS011;19476;51.448;6.674;2023-05-02T06:34:44;4.35;;;1.65;;
33104;SDS011;19476;51.448;6.674;2023-05-02T06:37:10;4.70;;;1.60;;
33104;SDS011;19476;51.448;6.674;2023-05-02T06:39:36;4.28;;;1.50;;
33104;SDS011;19476;51.448;6.674;2023-05-02T06:42:02;2.80;;;1.38;;
33104;SDS011;19476;51.448;6.674;2023-05-02T06:44:28;6.20;;;1.55;;
33104;SDS011;19476;51.448;6.674;2023-05-02T06:46:54;3.88;;;1.30;;
33104;SDS011;19476;51.448;6.674;2023-05-02T06:49:20;3.53;;;1.23;;
33104;SDS011;19476;51.448;6.674;2023-05-02T06:51:47;3.38;;;1.08;;
33104;SDS011;19476;51.448;6.674;2023-05-02T06:54:13;1.88;;;0.88;;
33104;SDS011;19476;51.448;6.674;2023-05-02T06:56:40;1.52;;;0.95;;
33104;SDS011;19476;51.448;6.674;2023-05-02T06:59:06;2.42;;;0.70;;
33104;SDS011;19476;51.448;6.674;2023-05-02T07:01:32;3.47;;;0.88;;
33104;SDS011;19476;51.448;6.674;2023-05-02T07:03:59;1.67;;;1.00;;
33104;SDS011;19476;51.448;6.674;2023-05-02T07:06:27;2.50;;;0.82;;
33104;SDS011;19476;51.448;6.674;2023-05-02T07:08:53;3.47;;;1.10;;
33104;SDS011;19476;51.448;6.674;2023-05-02T07:11:19;3.17;;;1.10;;
33104;SDS011;19476;51.448;6.674;2023-05-02T07:13:45;3.03;;;0.65;;
33104;SDS011;19476;51.448;6.674;2023-05-02T07:16:11;4.28;;;1.05;;
33104;SDS011;19476;51.448;6.674;2023-05-02T07:18:37;2.50;;;0.98;;
33104;SDS011;19476;51.448;6.674;2023-05-02T07:21:03;4.72;;;0.90;;
33104;SDS011;19476;51.448;6.674;2023-05-02T07:23:28;3.45;;;1.23;;
33104;SDS011;19476;51.448;6.674;2023-05-02T07:25:54;4.07;;;1.10;;
33104;SDS011;19476;51.448;6.674;2023-05-02T07:28:20;3.80;;;0.82;;
33104;SDS011;19476;51.448;6.674;2023-05-02T07:30:46;2.88;;;1.00;;
33104;SDS011;19476;51.448;6.674;2023-05-02T07:33:13;3.63;;;1.08;;
33104;SDS011;19476;51.448;6.674;2023-05-02T07:35:39;4.70;;;1.10;;
33104;SDS011;19476;51.448;6.674;2023-05-02T07:38:05;3.08;;;1.02;;
33104;SDS011;19476;51.448;6.674;2023-05-02T07:40:31;4.45;;;1.10;;
33104;SDS011;19476;51.448;6.674;2023-05-02T07:42:59;6.20;;;1.02;;
33104;SDS011;19476;51.448;6.674;2023-05-02T07:45:25;5.55;;;1.38;;
33104;SDS011;19476;51.448;6.674;2023-05-02T07:47:51;4.00;;;1.10;;
33104;SDS011;19476;51.448;6.674;2023-05-02T07:50:17;4.45;;;0.90;;
33104;SDS011;19476;51.448;6.674;2023-05-02T07:52:43;3.47;;;1.25;;
33104;SDS011;19476;51.448;6.674;2023-05-02T07:55:09;2.67;;;0.80;;
33104;SDS011;19476;51.448;6.674;2023-05-02T07:57:36;2.97;;;1.02;;
33104;SDS011;19476;51.448;6.674;2023-05-02T08:00:02;5.18;;;1.52;;
33104;SDS011;19476;51.448;6.674;2023-05-02T08:02:32;5.93;;;1.65;;
33104;SDS011;19476;51.448;6.674;2023-05-02T08:05:01;6.05;;;1.67;;
33104;SDS011;19476;51.448;6.674;2023-05-02T08:07:27;2.25;;;0.98;;
33104;SDS011;19476;51.448;6.674;2023-05-02T08:09:53;3.40;;;0.98;;
33104;SDS011;19476;51.448;6.674;2023-05-02T08:12:19;4.57;;;1.10;;
33104;SDS011;19476;51.448;6.674;2023-05-02T08:14:45;3.20;;;1.40;;
33104;SDS011;19476;51.448;6.674;2023-05-02T08:17:11;2.70;;;1.13;;
33104;SDS011;19476;51.448;6.674;2023-05-02T08:19:37;5.82;;;1.13;;
33104;SDS011;19476;51.448;6.674;2023-05-02T08:22:03;3.83;;;1.20;;
33104;SDS011;19476;51.448;6.674;2023-05-02T08:24:29;4.38;;;1.20;;
33104;SDS011;19476;51.448;6.674;2023-05-02T08:26:55;5.03;;;1.40;;
33104;SDS011;19476;51.448;6.674;2023-05-02T08:29:22;4.05;;;1.10;;
33104;SDS011;19476;51.448;6.674;2023-05-02T08:31:48;3.28;;;1.05;;
33104;SDS011;19476;51.448;6.674;2023-05-02T08:34:14;3.88;;;0.98;;
33104;SDS011;19476;51.448;6.674;2023-05-02T08:36:43;2.30;;;0.82;;
33104;SDS011;19476;51.448;6.674;2023-05-02T08:39:10;3.25;;;1.05;;
33104;SDS011;19476;51.448;6.674;2023-05-02T08:41:36;2.28;;;0.88;;
33104;SDS011;19476;51.448;6.674;2023-05-02T08:44:04;3.47;;;0.95;;
33104;SDS011;19476;51.448;6.674;2023-05-02T08:46:31;2.58;;;0.80;;
33104;SDS011;19476;51.448;6.674;2023-05-02T08:49:00;5.88;;;1.35;;
33104;SDS011;19476;51.448;6.674;2023-05-02T08:51:28;5.15;;;1.30;;
33104;SDS011;19476;51.448;6.674;2023-05-02T08:54:00;5.00;;;0.88;;
33104;SDS011;19476;51.448;6.674;2023-05-02T08:56:29;5.00;;;0.98;;
33104;SDS011;19476;51.448;6.674;2023-05-02T08:58:56;3.22;;;1.27;;
33104;SDS011;19476;51.448;6.674;2023-05-02T09:01:22;3.08;;;1.08;;
33104;SDS011;19476;51.448;6.674;2023-05-02T09:06:20;2.03;;;0.90;;
33104;SDS011;19476;51.448;6.674;2023-05-02T09:08:47;3.75;;;0.98;;
33104;SDS011;19476;51.448;6.674;2023-05-02T09:11:16;5.63;;;1.30;;
33104;SDS011;19476;51.448;6.674;2023-05-02T09:13:43;3.55;;;0.93;;
33104;SDS011;19476;51.448;6.674;2023-05-02T09:16:11;3.80;;;1.05;;
33104;SDS011;19476;51.448;6.674;2023-05-02T09:18:42;2.80;;;0.95;;
33104;SDS011;19476;51.448;6.674;2023-05-02T09:21:16;3.88;;;1.00;;
33104;SDS011;19476;51.448;6.674;2023-05-02T09:23:46;1.88;;;0.73;;
33104;SDS011;19476;51.448;6.674;2023-05-02T09:26:23;3.53;;;0.90;;
33104;SDS011;19476;51.448;6.674;2023-05-02T09:28:58;4.72;;;1.30;;
33104;SDS011;19476;51.448;6.674;2023-05-02T09:31:26;2.58;;;0.98;;
33104;SDS011;19476;51.448;6.674;2023-05-02T09:34:11;5.18;;;1.10;;
33104;SDS011;19476;51.448;6.674;2023-05-02T09:36:47;4.18;;;1.20;;
33104;SDS011;19476;51.448;6.674;2023-05-02T09:39:17;5.05;;;1.42;;
33104;SDS011;19476;51.448;6.674;2023-05-02T09:41:48;2.58;;;1.25;;
33104;SDS011;19476;51.448;6.674;2023-05-02T09:44:18;3.53;;;1.23;;
33104;SDS011;19476;51.448;6.674;2023-05-02T09:46:52;5.40;;;1.42;;
33104;SDS011;19476;51.448;6.674;2023-05-02T09:49:26;4.93;;;1.40;;
33104;SDS011;19476;51.448;6.674;2023-05-02T09:52:13;3.15;;;1.10;;
33104;SDS011;19476;51.448;6.674;2023-05-02T09:54:40;3.38;;;1.20;;
33104;SDS011;19476;51.448;6.674;2023-05-02T09:57:07;4.53;;;1.10;;
33104;SDS011;19476;51.448;6.674;2023-05-02T09:59:34;5.13;;;1.10;;
33104;SDS011;19476;51.448;6.674;2023-05-02T10:02:04;3.88;;;1.38;;
33104;SDS011;19476;51.448;6.674;2023-05-02T10:04:31;4.15;;;1.17;;
33104;SDS011;19476;51.448;6.674;2023-05-02T10:06:58;4.05;;;1.40;;
33104;SDS011;19476;51.448;6.674;2023-05-02T10:09:29;5.82;;;1.67;;
33104;SDS011;19476;51.448;6.674;2023-05-02T10:12:00;5.18;;;1.38;;
33104;SDS011;19476;51.448;6.674;2023-05-02T10:14:34;3.67;;;1.20;;
33104;SDS011;19476;51.448;6.674;2023-05-02T10:17:27;4.13;;;1.50;;
33104;SDS011;19476;51.448;6.674;2023-05-02T10:19:56;5.05;;;1.60;;
33104;SDS011;19476;51.448;6.674;2023-05-02T10:22:28;4.45;;;1.20;;
33104;SDS011;19476;51.448;6.674;2023-05-02T10:24:55;3.75;;;1.20;;
33104;SDS011;19476;51.448;6.674;2023-05-02T10:27:23;3.10;;;1.20;;
33104;SDS011;19476;51.448;6.674;2023-05-02T10:29:50;2.53;;;1.00;;
33104;SDS011;19476;51.448;6.674;2023-05-02T10:32:17;3.50;;;1.10;;
33104;SDS011;19476;51.448;6.674;2023-05-02T10:34:43;6.95;;;1.80;;
33104;SDS011;19476;51.448;6.674;2023-05-02T10:37:12;4.55;;;1.50;;
33104;SDS011;19476;51.448;6.674;2023-05-02T10:39:38;4.10;;;1.40;;
33104;SDS011;19476;51.448;6.674;2023-05-02T10:42:04;5.80;;;1.83;;
33104;SDS011;19476;51.448;6.674;2023-05-02T10:44:31;2.85;;;1.45;;
33104;SDS011;19476;51.448;6.674;2023-05-02T10:47:18;3.05;;;1.30;;
33104;SDS011;19476;51.448;6.674;2023-05-02T10:49:57;3.25;;;0.95;;
33104;SDS011;19476;51.448;6.674;2023-05-02T11:00:31;2.13;;;1.00;;
33104;SDS011;19476;51.448;6.674;2023-05-02T11:02:58;2.58;;;0.98;;
33104;SDS011;19476;51.448;6.674;2023-05-02T11:05:25;2.08;;;0.80;;
33104;SDS011;19476;51.448;6.674;2023-05-02T11:10:40;2.40;;;1.13;;
33104;SDS011;19476;51.448;6.674;2023-05-02T11:13:06;5.55;;;1.60;;
33104;SDS011;19476;51.448;6.674;2023-05-02T11:17:59;3.72;;;1.20;;
33104;SDS011;19476;51.448;6.674;2023-05-02T11:20:26;4.60;;;1.17;;
33104;SDS011;19476;51.448;6.674;2023-05-02T11:22:53;3.13;;;0.85;;
33104;SDS011;19476;51.448;6.674;2023-05-02T11:25:31;3.10;;;1.20;;
33104;SDS011;19476;51.448;6.674;2023-05-02T11:28:05;4.13;;;1.00;;
33104;SDS011;19476;51.448;6.674;2023-05-02T11:30:42;3.55;;;0.85;;
33104;SDS011;19476;51.448;6.674;2023-05-02T11:33:10;1.77;;;0.90;;
33104;SDS011;19476;51.448;6.674;2023-05-02T11:35:40;3.05;;;1.25;;
33104;SDS011;19476;51.448;6.674;2023-05-02T11:38:09;1.50;;;0.70;;
33104;SDS011;19476;51.448;6.674;2023-05-02T11:43:23;2.95;;;0.90;;
33104;SDS011;19476;51.448;6.674;2023-05-02T11:45:51;2.08;;;1.10;;
33104;SDS011;19476;51.448;6.674;2023-05-02T11:50:49;4.70;;;1.05;;
33104;SDS011;19476;51.448;6.674;2023-05-02T11:53:19;3.05;;;1.10;;
33104;SDS011;19476;51.448;6.674;2023-05-02T11:55:48;1.08;;;0.73;;
33104;SDS011;19476;51.448;6.674;2023-05-02T11:58:16;2.42;;;0.60;;
33104;SDS011;19476;51.448;6.674;2023-05-02T12:00:43;2.92;;;0.90;;
33104;SDS011;19476;51.448;6.674;2023-05-02T12:03:29;2.97;;;1.20;;
33104;SDS011;19476;51.448;6.674;2023-05-02T12:06:07;2.05;;;1.02;;
33104;SDS011;19476;51.448;6.674;2023-05-02T12:08:39;1.83;;;0.85;;
33104;SDS011;19476;51.448;6.674;2023-05-02T12:11:07;3.30;;;1.20;;
33104;SDS011;19476;51.448;6.674;2023-05-02T12:13:44;3.55;;;1.10;;
33104;SDS011;19476;51.448;6.674;2023-05-02T12:16:11;3.53;;;0.90;;
33104;SDS011;19476;51.448;6.674;2023-05-02T12:18:38;3.28;;;1.02;;
33104;SDS011;19476;51.448;6.674;2023-05-02T12:21:05;2.58;;;1.10;;
33104;SDS011;19476;51.448;6.674;2023-05-02T12:23:35;2.63;;;0.90;;
33104;SDS011;19476;51.448;6.674;2023-05-02T12:26:14;2.35;;;1.00;;
33104;SDS011;19476;51.448;6.674;2023-05-02T12:28:52;1.70;;;0.77;;
33104;SDS011;19476;51.448;6.674;2023-05-02T12:33:46;3.28;;;1.13;;
33104;SDS011;19476;51.448;6.674;2023-05-02T12:36:14;3.70;;;1.08;;
33104;SDS011;19476;51.448;6.674;2023-05-02T12:38:41;3.15;;;1.13;;
33104;SDS011;19476;51.448;6.674;2023-05-02T12:41:15;3.22;;;1.27;;
33104;SDS011;19476;51.448;6.674;2023-05-02T12:43:50;1.70;;;0.90;;
33104;SDS011;19476;51.448;6.674;2023-05-02T12:46:16;5.25;;;1.27;;
33104;SDS011;19476;51.448;6.674;2023-05-02T12:48:42;2.67;;;1.23;;
33104;SDS011;19476;51.448;6.674;2023-05-02T12:51:19;4.47;;;1.50;;
33104;SDS011;19476;51.448;6.674;2023-05-02T12:53:47;2.13;;;1.20;;
33104;SDS011;19476;51.448;6.674;2023-05-02T12:56:13;2.50;;;1.00;;
33104;SDS011;19476;51.448;6.674;2023-05-02T12:58:43;4.60;;;1.38;;
33104;SDS011;19476;51.448;6.674;2023-05-02T13:01:12;3.95;;;1.33;;
33104;SDS011;19476;51.448;6.674;2023-05-02T13:03:39;2.40;;;1.08;;
33104;SDS011;19476;51.448;6.674;2023-05-02T13:06:06;3.50;;;1.80;;
33104;SDS011;19476;51.448;6.674;2023-05-02T13:08:34;4.38;;;1.70;;
33104;SDS011;19476;51.448;6.674;2023-05-02T13:11:07;3.22;;;1.17;;
33104;SDS011;19476;51.448;6.674;2023-05-02T13:13:34;3.13;;;1.52;;
33104;SDS011;19476;51.448;6.674;2023-05-02T13:16:00;2.80;;;1.52;;
33104;SDS011;19476;51.448;6.674;2023-05-02T13:18:27;2.92;;;1.60;;
33104;SDS011;19476;51.448;6.674;2023-05-02T13:20:54;3.22;;;1.55;;
33104;SDS011;19476;51.448;6.674;2023-05-02T13:23:20;2.35;;;1.48;;
33104;SDS011;19476;51.448;6.674;2023-05-02T13:25:46;3.53;;;1.45;;
33104;SDS011;19476;51.448;6.674;2023-05-02T13:28:15;4.53;;;1.40;;
33104;SDS011;19476;51.448;6.674;2023-05-02T13:30:41;5.18;;;1.70;;
33104;SDS011;19476;51.448;6.674;2023-05-02T13:33:08;4.13;;;1.40;;
33104;SDS011;19476;51.448;6.674;2023-05-02T13:35:34;3.45;;;1.67;;
33104;SDS011;19476;51.448;6.674;2023-05-02T13:38:01;3.25;;;1.33;;
33104;SDS011;19476;51.448;6.674;2023-05-02T13:40:27;3.63;;;1.48;;
33104;SDS011;19476;51.448;6.674;2023-05-02T13:42:54;4.45;;;1.58;;
33104;SDS011;19476;51.448;6.674;2023-05-02T13:45:20;2.28;;;1.25;;
33104;SDS011;19476;51.448;6.674;2023-05-02T13:47:46;5.57;;;2.25;;
33104;SDS011;19476;51.448;6.674;2023-05-02T13:50:12;4.47;;;1.88;;
33104;SDS011;19476;51.448;6.674;2023-05-02T13:52:38;4.35;;;1.52;;
33104;SDS011;19476;51.448;6.674;2023-05-02T13:55:05;3.90;;;1.52;;
33104;SDS011;19476;51.448;6.674;2023-05-02T13:57:32;4.03;;;1.60;;
33104;SDS011;19476;51.448;6.674;2023-05-02T13:59:58;4.15;;;1.40;;
33104;SDS011;19476;51.448;6.674;2023-05-02T14:02:24;4.57;;;1.58;;
33104;SDS011;19476;51.448;6.674;2023-05-02T14:04:50;3.35;;;1.60;;
33104;SDS011;19476;51.448;6.674;2023-05-02T14:07:16;2.97;;;1.50;;
33104;SDS011;19476;51.448;6.674;2023-05-02T14:09:42;4.00;;;1.70;;
33104;SDS011;19476;51.448;6.674;2023-05-02T14:12:09;4.65;;;2.05;;
33104;SDS011;19476;51.448;6.674;2023-05-02T14:14:35;3.88;;;1.60;;
33104;SDS011;19476;51.448;6.674;2023-05-02T14:17:02;4.45;;;1.80;;
33104;SDS011;19476;51.448;6.674;2023-05-02T14:19:29;4.18;;;1.73;;
33104;SDS011;19476;51.448;6.674;2023-05-02T14:21:56;4.35;;;1.83;;
33104;SDS011;19476;51.448;6.674;2023-05-02T14:24:23;4.03;;;1.70;;
33104;SDS011;19476;51.448;6.674;2023-05-02T14:26:49;4.22;;;1.88;;
33104;SDS011;19476;51.448;6.674;2023-05-02T14:29:15;3.28;;;1.38;;
33104;SDS011;19476;51.448;6.674;2023-05-02T14:31:42;4.75;;;1.58;;
33104;SDS011;19476;51.448;6.674;2023-05-02T14:34:10;5.03;;;1.77;;
33104;SDS011;19476;51.448;6.674;2023-05-02T14:36:38;4.32;;;2.05;;
33104;SDS011;19476;51.448;6.674;2023-05-02T14:39:05;3.92;;;2.22;;
33104;SDS011;19476;51.448;6.674;2023-05-02T14:41:31;3.05;;;1.73;;
33104;SDS011;19476;51.448;6.674;2023-05-02T14:43:57;3.95;;;1.90;;
33104;SDS011;19476;51.448;6.674;2023-05-02T14:46:23;6.20;;;1.92;;
33104;SDS011;19476;51.448;6.674;2023-05-02T14:48:49;3.97;;;1.73;;
33104;SDS011;19476;51.448;6.674;2023-05-02T14:51:16;3.45;;;1.60;;
33104;SDS011;19476;51.448;6.674;2023-05-02T14:53:42;3.15;;;1.63;;
33104;SDS011;19476;51.448;6.674;2023-05-02T14:56:12;4.95;;;1.67;;
33104;SDS011;19476;51.448;6.674;2023-05-02T14:58:40;3.55;;;1.63;;
33104;SDS011;19476;51.448;6.674;2023-05-02T15:01:13;3.92;;;1.80;;
33104;SDS011;19476;51.448;6.674;2023-05-02T15:03:42;5.47;;;2.28;;
33104;SDS011;19476;51.448;6.674;2023-05-02T15:06:12;3.85;;;1.75;;
33104;SDS011;19476;51.448;6.674;2023-05-02T15:08:39;3.50;;;1.70;;
33104;SDS011;19476;51.448;6.674;2023-05-02T15:11:05;4.40;;;1.60;;
33104;SDS011;19476;51.448;6.674;2023-05-02T15:13:34;4.20;;;2.10;;
33104;SDS011;19476;51.448;6.674;2023-05-02T15:16:04;4.65;;;2.10;;
33104;SDS011;19476;51.448;6.674;2023-05-02T15:18:35;5.47;;;2.00;;
33104;SDS011;19476;51.448;6.674;2023-05-02T15:21:02;3.15;;;1.63;;
33104;SDS011;19476;51.448;6.674;2023-05-02T15:23:28;5.30;;;2.45;;
33104;SDS011;19476;51.448;6.674;2023-05-02T15:25:55;5.40;;;1.80;;
33104;SDS011;19476;51.448;6.674;2023-05-02T15:28:25;4.15;;;1.85;;
33104;SDS011;19476;51.448;6.674;2023-05-02T15:31:00;4.50;;;2.08;;